sensor_id;sensor_type;location;lat;lon;timestamp;P1;durP1;ratioP1;P2;durP2;ratioP2
14520;SDS011;7347;50.844;4.490;2023-02-16T08:18:07;19.40;;;8.77;;
14520;SDS011;7347;50.844;4.490;2023-02-16T08:20:34;16.93;;;8.70;;
14520;SDS011;7347;50.844;4.490;2023-02-16T08:23:01;18.73;;;9.00;;
14520;SDS011;7347;50.844;4.490;2023-02-16T08:25:29;19.43;;;9.17;;
14520;SDS011;7347;50.844;4.490;2023-02-16T08:27:58;20.73;;;9.00;;
14520;SDS011;7347;50.844;4.490;2023-02-16T08:30:25;16.27;;;8.07;;
14520;SDS011;7347;50.844;4.490;2023-02-16T08:32:52;21.03;;;9.00;;
14520;SDS011;7347;50.844;4.490;2023-02-16T08:35:22;20.07;;;9.07;;
14520;SDS011;7347;50.844;4.490;2023-02-16T08:37:48;23.43;;;9.27;;
14520;SDS011;7347;50.844;4.490;2023-02-16T08:40:15;18.93;;;8.37;;
14520;SDS011;7347;50.844;4.490;2023-02-16T08:42:42;17.20;;;8.73;;
14520;SDS011;7347;50.844;4.490;2023-02-16T08:45:09;17.07;;;8.67;;
14520;SDS011;7347;50.844;4.490;2023-02-16T08:47:38;17.93;;;9.07;;
14520;SDS011;7347;50.844;4.490;2023-02-16T08:50:05;21.17;;;9.10;;
14520;SDS011;7347;50.844;4.490;2023-02-16T08:52:34;20.93;;;9.13;;
14520;SDS011;7347;50.844;4.490;2023-02-16T08:55:01;18.23;;;9.13;;
14520;SDS011;7347;50.844;4.490;2023-02-16T08:57:28;17.50;;;8.50;;
14520;SDS011;7347;50.844;4.490;2023-02-16T08:59:58;24.93;;;9.77;;
14520;SDS011;7347;50.844;4.490;2023-02-16T09:02:43;19.57;;;9.13;;
14520;SDS011;7347;50.844;4.490;2023-02-16T09:05:09;19.27;;;8.77;;
14520;SDS011;7347;50.844;4.490;2023-02-16T09:07:38;19.40;;;8.40;;
14520;SDS011;7347;50.844;4.490;2023-02-16T09:10:05;19.17;;;9.03;;
14520;SDS011;7347;50.844;4.490;2023-02-16T09:12:33;20.17;;;9.10;;
14520;SDS011;7347;50.844;4.490;2023-02-16T09:15:00;21.63;;;8.93;;
14520;SDS011;7347;50.844;4.490;2023-02-16T09:17:28;19.37;;;9.40;;
14520;SDS011;7347;50.844;4.490;2023-02-16T09:19:55;22.27;;;9.43;;
14520;SDS011;7347;50.844;4.490;2023-02-16T09:22:22;20.03;;;10.27;;
14520;SDS011;7347;50.844;4.490;2023-02-16T09:24:50;20.27;;;9.73;;
14520;SDS011;7347;50.844;4.490;2023-02-16T09:27:16;18.50;;;9.57;;
14520;SDS011;7347;50.844;4.490;2023-02-16T09:29:44;18.33;;;9.87;;
14520;SDS011;7347;50.844;4.490;2023-02-16T09:32:11;17.07;;;9.20;;
14520;SDS011;7347;50.844;4.490;2023-02-16T09:34:37;18.23;;;9.53;;
14520;SDS011;7347;50.844;4.490;2023-02-16T09:37:04;21.37;;;9.43;;
14520;SDS011;7347;50.844;4.490;2023-02-16T09:39:31;21.93;;;10.23;;
14520;SDS011;7347;50.844;4.490;2023-02-16T09:42:03;20.10;;;9.33;;
14520;SDS011;7347;50.844;4.490;2023-02-16T09:44:41;20.20;;;9.83;;
14520;SDS011;7347;50.844;4.490;2023-02-16T09:47:18;18.70;;;9.30;;
14520;SDS011;7347;50.844;4.490;2023-02-16T09:49:48;21.70;;;10.33;;
14520;SDS011;7347;50.844;4.490;2023-02-16T09:52:18;19.33;;;9.53;;
14520;SDS011;7347;50.844;4.490;2023-02-16T09:54:50;21.53;;;9.13;;
14520;SDS011;7347;50.844;4.490;2023-02-16T09:57:21;20.67;;;10.00;;
14520;SDS011;7347;50.844;4.490;2023-02-16T09:59:55;21.37;;;9.67;;
14520;SDS011;7347;50.844;4.490;2023-02-16T10:02:30;22.23;;;10.90;;
14520;SDS011;7347;50.844;4.490;2023-02-16T10:05:16;19.50;;;9.03;;
14520;SDS011;7347;50.844;4.490;2023-02-16T10:07:49;22.40;;;9.73;;
14520;SDS011;7347;50.844;4.490;2023-02-16T10:10:24;18.60;;;9.43;;
14520;SDS011;7347;50.844;4.490;2023-02-16T10:12:59;19.87;;;9.77;;
14520;SDS011;7347;50.844;4.490;2023-02-16T10:15:29;16.17;;;8.63;;
14520;SDS011;7347;50.844;4.490;2023-02-16T10:17:59;19.50;;;9.30;;
14520;SDS011;7347;50.844;4.490;2023-02-16T10:20:32;21.43;;;9.73;;
14520;SDS011;7347;50.844;4.490;2023-02-16T10:23:03;20.57;;;9.80;;
14520;SDS011;7347;50.844;4.490;2023-02-16T10:25:41;19.97;;;9.97;;
14520;SDS011;7347;50.844;4.490;2023-02-16T10:28:14;18.20;;;8.83;;
14520;SDS011;7347;50.844;4.490;2023-02-16T10:30:45;16.90;;;8.73;;
14520;SDS011;7347;50.844;4.490;2023-02-16T10:33:15;21.50;;;10.03;;
14520;SDS011;7347;50.844;4.490;2023-02-16T10:35:47;19.37;;;8.60;;
14520;SDS011;7347;50.844;4.490;2023-02-16T10:38:19;20.77;;;9.20;;
14520;SDS011;7347;50.844;4.490;2023-02-16T10:40:51;21.20;;;9.77;;
14520;SDS011;7347;50.844;4.490;2023-02-16T10:43:30;19.87;;;9.53;;
14520;SDS011;7347;50.844;4.490;2023-02-16T10:46:05;20.93;;;9.23;;
14520;SDS011;7347;50.844;4.490;2023-02-16T10:48:35;19.73;;;9.83;;
14520;SDS011;7347;50.844;4.490;2023-02-16T10:51:04;23.03;;;9.37;;
14520;SDS011;7347;50.844;4.490;2023-02-16T10:53:35;14.67;;;8.60;;
14520;SDS011;7347;50.844;4.490;2023-02-16T10:59:06;16.67;;;8.17;;
14520;SDS011;7347;50.844;4.490;2023-02-16T11:01:44;16.10;;;8.07;;
14520;SDS011;7347;50.844;4.490;2023-02-16T11:04:33;17.07;;;7.80;;
14520;SDS011;7347;50.844;4.490;2023-02-16T11:07:05;20.37;;;8.57;;
14520;SDS011;7347;50.844;4.490;2023-02-16T11:09:34;14.57;;;7.43;;
14520;SDS011;7347;50.844;4.490;2023-02-16T11:12:02;15.97;;;7.57;;
14520;SDS011;7347;50.844;4.490;2023-02-16T11:14:46;18.37;;;7.87;;
14520;SDS011;7347;50.844;4.490;2023-02-16T11:17:15;14.77;;;7.40;;
14520;SDS011;7347;50.844;4.490;2023-02-16T11:19:46;14.63;;;7.83;;
14520;SDS011;7347;50.844;4.490;2023-02-16T11:22:26;16.07;;;7.73;;
14520;SDS011;7347;50.844;4.490;2023-02-16T11:25:18;16.93;;;6.90;;
14520;SDS011;7347;50.844;4.490;2023-02-16T11:27:51;14.13;;;7.57;;
14520;SDS011;7347;50.844;4.490;2023-02-16T11:30:25;16.33;;;7.60;;
14520;SDS011;7347;50.844;4.490;2023-02-16T11:32:56;15.70;;;7.10;;
14520;SDS011;7347;50.844;4.490;2023-02-16T11:35:25;18.53;;;8.07;;
14520;SDS011;7347;50.844;4.490;2023-02-16T11:37:52;15.80;;;6.93;;
14520;SDS011;7347;50.844;4.490;2023-02-16T11:40:21;13.23;;;7.30;;
14520;SDS011;7347;50.844;4.490;2023-02-16T11:42:50;15.97;;;7.03;;
14520;SDS011;7347;50.844;4.490;2023-02-16T11:45:24;13.43;;;6.83;;
14520;SDS011;7347;50.844;4.490;2023-02-16T11:47:53;13.70;;;6.77;;
14520;SDS011;7347;50.844;4.490;2023-02-16T11:50:22;15.37;;;7.40;;
14520;SDS011;7347;50.844;4.490;2023-02-16T11:52:53;14.43;;;6.67;;
14520;SDS011;7347;50.844;4.490;2023-02-16T11:55:23;14.80;;;6.50;;
14520;SDS011;7347;50.844;4.490;2023-02-16T11:58:11;16.33;;;7.07;;
14520;SDS011;7347;50.844;4.490;2023-02-16T12:00:45;13.87;;;6.83;;
14520;SDS011;7347;50.844;4.490;2023-02-16T12:03:25;12.80;;;6.97;;
14520;SDS011;7347;50.844;4.490;2023-02-16T12:06:13;17.23;;;6.07;;
14520;SDS011;7347;50.844;4.490;2023-02-16T12:08:57;13.27;;;7.00;;
14520;SDS011;7347;50.844;4.490;2023-02-16T12:11:34;10.63;;;5.97;;
14520;SDS011;7347;50.844;4.490;2023-02-16T12:14:11;12.73;;;6.43;;
14520;SDS011;7347;50.844;4.490;2023-02-16T12:17:17;14.37;;;6.80;;
14520;SDS011;7347;50.844;4.490;2023-02-16T12:19:55;13.33;;;6.67;;
14520;SDS011;7347;50.844;4.490;2023-02-16T12:22:29;14.90;;;7.20;;
14520;SDS011;7347;50.844;4.490;2023-02-16T12:27:53;11.73;;;5.90;;
14520;SDS011;7347;50.844;4.490;2023-02-16T12:30:32;12.17;;;6.20;;
14520;SDS011;7347;50.844;4.490;2023-02-16T12:33:20;9.70;;;5.33;;
14520;SDS011;7347;50.844;4.490;2023-02-16T12:35:59;11.23;;;5.47;;
14520;SDS011;7347;50.844;4.490;2023-02-16T12:38:40;10.27;;;5.30;;
14520;SDS011;7347;50.844;4.490;2023-02-16T12:41:17;13.97;;;5.63;;
14520;SDS011;7347;50.844;4.490;2023-02-16T12:43:51;13.30;;;6.00;;
14520;SDS011;7347;50.844;4.490;2023-02-16T12:46:25;9.83;;;5.77;;
14520;SDS011;7347;50.844;4.490;2023-02-16T12:48:57;12.27;;;6.07;;
14520;SDS011;7347;50.844;4.490;2023-02-16T12:51:26;13.50;;;6.23;;
14520;SDS011;7347;50.844;4.490;2023-02-16T12:54:00;14.87;;;6.53;;
14520;SDS011;7347;50.844;4.490;2023-02-16T12:56:35;12.67;;;6.20;;
14520;SDS011;7347;50.844;4.490;2023-02-16T12:59:06;17.20;;;6.27;;
14520;SDS011;7347;50.844;4.490;2023-02-16T13:01:42;12.33;;;5.97;;
14520;SDS011;7347;50.844;4.490;2023-02-16T13:04:14;13.10;;;6.00;;
14520;SDS011;7347;50.844;4.490;2023-02-16T13:06:47;16.40;;;6.30;;
14520;SDS011;7347;50.844;4.490;2023-02-16T13:09:22;10.87;;;6.50;;
14520;SDS011;7347;50.844;4.490;2023-02-16T13:11:58;13.50;;;6.27;;
14520;SDS011;7347;50.844;4.490;2023-02-16T13:14:31;12.33;;;6.37;;
14520;SDS011;7347;50.844;4.490;2023-02-16T13:17:01;12.50;;;6.40;;
14520;SDS011;7347;50.844;4.490;2023-02-16T13:19:36;14.03;;;6.63;;
14520;SDS011;7347;50.844;4.490;2023-02-16T13:22:16;12.40;;;6.03;;
14520;SDS011;7347;50.844;4.490;2023-02-16T13:24:57;12.97;;;6.70;;
14520;SDS011;7347;50.844;4.490;2023-02-16T13:27:36;13.23;;;6.53;;
14520;SDS011;7347;50.844;4.490;2023-02-16T13:30:32;11.83;;;6.27;;
14520;SDS011;7347;50.844;4.490;2023-02-16T13:33:25;16.60;;;6.17;;
14520;SDS011;7347;50.844;4.490;2023-02-16T13:39:11;11.77;;;6.07;;
14520;SDS011;7347;50.844;4.490;2023-02-16T13:42:04;11.30;;;5.97;;
14520;SDS011;7347;50.844;4.490;2023-02-16T13:44:48;12.57;;;6.13;;
14520;SDS011;7347;50.844;4.490;2023-02-16T13:47:21;12.53;;;5.67;;
14520;SDS011;7347;50.844;4.490;2023-02-16T13:49:54;10.17;;;4.93;;
14520;SDS011;7347;50.844;4.490;2023-02-16T13:52:28;11.27;;;5.20;;
14520;SDS011;7347;50.844;4.490;2023-02-16T13:54:58;12.77;;;5.83;;
14520;SDS011;7347;50.844;4.490;2023-02-16T14:00:25;10.73;;;5.30;;
14520;SDS011;7347;50.844;4.490;2023-02-16T14:02:58;11.13;;;4.97;;
14520;SDS011;7347;50.844;4.490;2023-02-16T14:05:29;10.13;;;5.77;;
14520;SDS011;7347;50.844;4.490;2023-02-16T14:11:04;12.93;;;6.13;;
14520;SDS011;7347;50.844;4.490;2023-02-16T14:13:43;13.83;;;5.93;;
14520;SDS011;7347;50.844;4.490;2023-02-16T14:16:25;11.87;;;6.40;;
14520;SDS011;7347;50.844;4.490;2023-02-16T14:18:58;12.93;;;6.00;;
14520;SDS011;7347;50.844;4.490;2023-02-16T14:21:33;11.67;;;6.23;;
14520;SDS011;7347;50.844;4.490;2023-02-16T14:24:06;9.77;;;5.17;;
14520;SDS011;7347;50.844;4.490;2023-02-16T14:29:27;9.07;;;5.40;;
14520;SDS011;7347;50.844;4.490;2023-02-16T14:31:58;12.83;;;5.63;;
14520;SDS011;7347;50.844;4.490;2023-02-16T14:34:33;10.93;;;5.43;;
14520;SDS011;7347;50.844;4.490;2023-02-16T14:39:54;11.90;;;5.60;;
14520;SDS011;7347;50.844;4.490;2023-02-16T14:42:29;11.67;;;5.60;;
14520;SDS011;7347;50.844;4.490;2023-02-16T14:45:03;7.20;;;4.80;;
14520;SDS011;7347;50.844;4.490;2023-02-16T14:47:44;11.87;;;5.30;;
14520;SDS011;7347;50.844;4.490;2023-02-16T14:50:23;12.27;;;5.40;;
14520;SDS011;7347;50.844;4.490;2023-02-16T14:56:24;9.13;;;4.80;;
14520;SDS011;7347;50.844;4.490;2023-02-16T14:59:04;10.37;;;4.97;;
14520;SDS011;7347;50.844;4.490;2023-02-16T15:01:38;12.07;;;5.00;;
14520;SDS011;7347;50.844;4.490;2023-02-16T15:04:07;10.13;;;4.90;;
14520;SDS011;7347;50.844;4.490;2023-02-16T15:06:36;12.10;;;5.13;;
14520;SDS011;7347;50.844;4.490;2023-02-16T15:09:12;10.10;;;5.27;;
14520;SDS011;7347;50.844;4.490;2023-02-16T15:11:46;8.20;;;4.83;;
14520;SDS011;7347;50.844;4.490;2023-02-16T15:14:33;8.73;;;4.33;;
14520;SDS011;7347;50.844;4.490;2023-02-16T15:17:06;10.60;;;5.50;;
14520;SDS011;7347;50.844;4.490;2023-02-16T15:19:35;8.90;;;5.00;;
14520;SDS011;7347;50.844;4.490;2023-02-16T15:22:07;11.10;;;4.57;;
14520;SDS011;7347;50.844;4.490;2023-02-16T15:24:35;10.53;;;4.70;;
14520;SDS011;7347;50.844;4.490;2023-02-16T15:27:04;9.97;;;4.90;;
14520;SDS011;7347;50.844;4.490;2023-02-16T15:29:31;10.77;;;5.83;;
14520;SDS011;7347;50.844;4.490;2023-02-16T15:31:58;10.10;;;5.67;;
14520;SDS011;7347;50.844;4.490;2023-02-16T15:34:26;15.40;;;4.87;;
14520;SDS011;7347;50.844;4.490;2023-02-16T15:36:57;14.87;;;5.97;;
14520;SDS011;7347;50.844;4.490;2023-02-16T15:39:26;11.13;;;5.70;;
14520;SDS011;7347;50.844;4.490;2023-02-16T15:42:10;12.77;;;5.10;;
14520;SDS011;7347;50.844;4.490;2023-02-16T15:44:44;8.43;;;4.83;;
14520;SDS011;7347;50.844;4.490;2023-02-16T15:47:12;8.77;;;5.07;;
14520;SDS011;7347;50.844;4.490;2023-02-16T15:49:41;9.73;;;5.43;;
14520;SDS011;7347;50.844;4.490;2023-02-16T15:52:10;14.40;;;5.43;;
14520;SDS011;7347;50.844;4.490;2023-02-16T15:54:40;11.50;;;5.67;;
14520;SDS011;7347;50.844;4.490;2023-02-16T15:57:13;10.93;;;5.30;;
14520;SDS011;7347;50.844;4.490;2023-02-16T15:59:46;14.60;;;5.13;;
14520;SDS011;7347;50.844;4.490;2023-02-16T16:02:15;10.47;;;5.10;;
14520;SDS011;7347;50.844;4.490;2023-02-16T16:04:44;10.67;;;5.10;;
14520;SDS011;7347;50.844;4.490;2023-02-16T16:07:14;9.97;;;5.10;;
14520;SDS011;7347;50.844;4.490;2023-02-16T16:09:44;11.13;;;5.37;;
14520;SDS011;7347;50.844;4.490;2023-02-16T16:12:13;12.93;;;4.87;;
14520;SDS011;7347;50.844;4.490;2023-02-16T16:14:43;10.23;;;5.50;;
14520;SDS011;7347;50.844;4.490;2023-02-16T16:17:15;11.50;;;5.60;;
14520;SDS011;7347;50.844;4.490;2023-02-16T16:19:46;12.77;;;4.90;;
14520;SDS011;7347;50.844;4.490;2023-02-16T16:22:26;11.00;;;5.07;;
14520;SDS011;7347;50.844;4.490;2023-02-16T16:24:57;12.03;;;5.33;;
14520;SDS011;7347;50.844;4.490;2023-02-16T16:27:30;13.83;;;6.03;;
14520;SDS011;7347;50.844;4.490;2023-02-16T16:30:10;14.10;;;6.23;;
14520;SDS011;7347;50.844;4.490;2023-02-16T16:32:57;17.27;;;6.60;;
14520;SDS011;7347;50.844;4.490;2023-02-16T16:35:32;9.63;;;5.33;;
14520;SDS011;7347;50.844;4.490;2023-02-16T16:38:00;13.60;;;6.33;;
14520;SDS011;7347;50.844;4.490;2023-02-16T16:40:28;11.37;;;6.13;;
14520;SDS011;7347;50.844;4.490;2023-02-16T16:43:06;12.77;;;6.53;;
14520;SDS011;7347;50.844;4.490;2023-02-16T16:45:39;13.57;;;6.77;;
14520;SDS011;7347;50.844;4.490;2023-02-16T16:48:08;13.30;;;6.13;;
14520;SDS011;7347;50.844;4.490;2023-02-16T16:50:41;14.80;;;6.37;;
14520;SDS011;7347;50.844;4.490;2023-02-16T16:56:08;12.63;;;6.53;;
14520;SDS011;7347;50.844;4.490;2023-02-16T16:58:36;11.83;;;6.30;;
14520;SDS011;7347;50.844;4.490;2023-02-16T17:01:03;13.80;;;6.97;;
14520;SDS011;7347;50.844;4.490;2023-02-16T17:03:30;17.83;;;7.67;;
14520;SDS011;7347;50.844;4.490;2023-02-16T17:05:57;11.57;;;6.43;;
14520;SDS011;7347;50.844;4.490;2023-02-16T17:08:24;10.20;;;6.17;;
14520;SDS011;7347;50.844;4.490;2023-02-16T17:10:51;12.47;;;6.50;;
14520;SDS011;7347;50.844;4.490;2023-02-16T17:13:19;12.17;;;6.80;;
14520;SDS011;7347;50.844;4.490;2023-02-16T17:15:49;13.83;;;7.10;;
14520;SDS011;7347;50.844;4.490;2023-02-16T17:18:21;15.80;;;7.67;;
14520;SDS011;7347;50.844;4.490;2023-02-16T17:20:48;15.40;;;7.70;;
14520;SDS011;7347;50.844;4.490;2023-02-16T17:23:16;13.83;;;7.27;;
14520;SDS011;7347;50.844;4.490;2023-02-16T17:25:44;14.10;;;7.90;;
14520;SDS011;7347;50.844;4.490;2023-02-16T17:28:11;16.17;;;7.10;;
14520;SDS011;7347;50.844;4.490;2023-02-16T17:30:40;11.40;;;6.50;;
14520;SDS011;7347;50.844;4.490;2023-02-16T17:33:09;15.30;;;7.23;;
14520;SDS011;7347;50.844;4.490;2023-02-16T17:35:36;12.57;;;6.33;;
14520;SDS011;7347;50.844;4.490;2023-02-16T17:38:06;13.63;;;6.43;;
14520;SDS011;7347;50.844;4.490;2023-02-16T17:40:34;16.07;;;7.27;;
14520;SDS011;7347;50.844;4.490;2023-02-16T17:43:00;15.63;;;7.33;;
14520;SDS011;7347;50.844;4.490;2023-02-16T17:45:27;15.97;;;7.53;;
14520;SDS011;7347;50.844;4.490;2023-02-16T17:47:54;14.13;;;6.67;;
14520;SDS011;7347;50.844;4.490;2023-02-16T17:50:22;14.33;;;6.43;;
14520;SDS011;7347;50.844;4.490;2023-02-16T17:52:50;19.77;;;7.33;;
14520;SDS011;7347;50.844;4.490;2023-02-16T17:55:21;12.90;;;6.07;;
14520;SDS011;7347;50.844;4.490;2023-02-16T17:57:47;14.23;;;6.87;;
14520;SDS011;7347;50.844;4.490;2023-02-16T18:00:15;13.30;;;6.40;;
14520;SDS011;7347;50.844;4.490;2023-02-16T18:02:44;15.43;;;7.30;;
14520;SDS011;7347;50.844;4.490;2023-02-16T18:05:11;12.50;;;6.40;;
14520;SDS011;7347;50.844;4.490;2023-02-16T18:07:40;14.23;;;6.97;;
14520;SDS011;7347;50.844;4.490;2023-02-16T18:10:12;14.63;;;6.07;;
14520;SDS011;7347;50.844;4.490;2023-02-16T18:12:41;11.20;;;6.13;;
14520;SDS011;7347;50.844;4.490;2023-02-16T18:15:08;12.13;;;6.40;;
14520;SDS011;7347;50.844;4.490;2023-02-16T18:17:35;19.90;;;7.03;;
14520;SDS011;7347;50.844;4.490;2023-02-16T18:20:02;17.33;;;6.63;;
14520;SDS011;7347;50.844;4.490;2023-02-16T18:22:29;13.67;;;6.77;;
14520;SDS011;7347;50.844;4.490;2023-02-16T18:24:57;17.63;;;7.27;;
14520;SDS011;7347;50.844;4.490;2023-02-16T18:27:24;12.37;;;7.03;;
14520;SDS011;7347;50.844;4.490;2023-02-16T18:29:51;13.40;;;7.00;;
14520;SDS011;7347;50.844;4.490;2023-02-16T18:32:18;14.10;;;7.40;;
14520;SDS011;7347;50.844;4.490;2023-02-16T18:34:44;18.17;;;5.77;;
14520;SDS011;7347;50.844;4.490;2023-02-16T18:37:11;14.90;;;6.53;;
14520;SDS011;7347;50.844;4.490;2023-02-16T18:39:38;13.23;;;7.30;;
14520;SDS011;7347;50.844;4.490;2023-02-16T18:42:08;12.67;;;6.40;;
14520;SDS011;7347;50.844;4.490;2023-02-16T18:44:35;13.17;;;7.03;;
14520;SDS011;7347;50.844;4.490;2023-02-16T18:47:02;14.10;;;7.37;;
14520;SDS011;7347;50.844;4.490;2023-02-16T18:49:29;15.83;;;7.23;;
14520;SDS011;7347;50.844;4.490;2023-02-16T18:51:56;14.50;;;7.13;;
14520;SDS011;7347;50.844;4.490;2023-02-16T18:54:23;16.10;;;7.10;;
14520;SDS011;7347;50.844;4.490;2023-02-16T18:56:49;15.77;;;7.60;;
14520;SDS011;7347;50.844;4.490;2023-02-16T18:59:17;15.93;;;7.83;;
14520;SDS011;7347;50.844;4.490;2023-02-16T19:01:44;17.97;;;7.60;;
14520;SDS011;7347;50.844;4.490;2023-02-16T19:04:11;15.47;;;7.57;;
14520;SDS011;7347;50.844;4.490;2023-02-16T19:06:38;14.53;;;7.60;;
14520;SDS011;7347;50.844;4.490;2023-02-16T19:09:05;14.83;;;7.40;;
14520;SDS011;7347;50.844;4.490;2023-02-16T19:11:31;15.53;;;7.50;;
14520;SDS011;7347;50.844;4.490;2023-02-16T19:13:58;12.80;;;6.87;;
14520;SDS011;7347;50.844;4.490;2023-02-16T19:16:27;14.70;;;7.53;;
14520;SDS011;7347;50.844;4.490;2023-02-16T19:18:53;16.73;;;7.43;;
14520;SDS011;7347;50.844;4.490;2023-02-16T19:21:20;15.23;;;7.87;;
14520;SDS011;7347;50.844;4.490;2023-02-16T19:23:47;13.77;;;6.77;;
14520;SDS011;7347;50.844;4.490;2023-02-16T19:26:14;14.70;;;7.60;;
14520;SDS011;7347;50.844;4.490;2023-02-16T19:28:42;12.63;;;6.10;;
14520;SDS011;7347;50.844;4.490;2023-02-16T19:31:14;13.43;;;6.93;;
14520;SDS011;7347;50.844;4.490;2023-02-16T19:33:43;11.07;;;6.00;;
14520;SDS011;7347;50.844;4.490;2023-02-16T19:36:10;11.13;;;6.13;;
14520;SDS011;7347;50.844;4.490;2023-02-16T19:38:38;12.63;;;6.53;;
14520;SDS011;7347;50.844;4.490;2023-02-16T19:41:06;15.03;;;6.50;;
14520;SDS011;7347;50.844;4.490;2023-02-16T19:43:34;13.20;;;7.07;;
14520;SDS011;7347;50.844;4.490;2023-02-16T19:46:01;14.93;;;7.67;;
14520;SDS011;7347;50.844;4.490;2023-02-16T19:48:28;15.63;;;7.60;;
14520;SDS011;7347;50.844;4.490;2023-02-16T19:50:56;14.57;;;7.83;;
14520;SDS011;7347;50.844;4.490;2023-02-16T19:53:24;13.73;;;8.27;;
14520;SDS011;7347;50.844;4.490;2023-02-16T19:55:51;16.57;;;9.27;;
14520;SDS011;7347;50.844;4.490;2023-02-16T19:58:18;18.43;;;8.70;;
14520;SDS011;7347;50.844;4.490;2023-02-16T20:00:45;15.37;;;8.60;;
14520;SDS011;7347;50.844;4.490;2023-02-16T20:03:12;14.17;;;7.77;;
14520;SDS011;7347;50.844;4.490;2023-02-16T20:05:39;14.00;;;7.73;;
14520;SDS011;7347;50.844;4.490;2023-02-16T20:08:08;15.03;;;7.67;;
14520;SDS011;7347;50.844;4.490;2023-02-16T20:10:37;14.13;;;7.70;;
14520;SDS011;7347;50.844;4.490;2023-02-16T20:13:05;12.90;;;6.73;;
14520;SDS011;7347;50.844;4.490;2023-02-16T20:15:31;16.17;;;7.67;;
14520;SDS011;7347;50.844;4.490;2023-02-16T20:17:58;12.60;;;6.70;;
14520;SDS011;7347;50.844;4.490;2023-02-16T20:20:25;11.43;;;6.33;;
14520;SDS011;7347;50.844;4.490;2023-02-16T20:22:52;10.07;;;6.53;;
14520;SDS011;7347;50.844;4.490;2023-02-16T20:25:20;10.87;;;5.30;;
14520;SDS011;7347;50.844;4.490;2023-02-16T20:27:47;11.87;;;6.30;;
14520;SDS011;7347;50.844;4.490;2023-02-16T20:30:14;10.37;;;5.87;;
14520;SDS011;7347;50.844;4.490;2023-02-16T20:32:44;11.10;;;6.13;;
14520;SDS011;7347;50.844;4.490;2023-02-16T20:35:12;11.30;;;6.30;;
14520;SDS011;7347;50.844;4.490;2023-02-16T20:37:38;11.90;;;5.87;;
14520;SDS011;7347;50.844;4.490;2023-02-16T20:40:06;9.80;;;5.80;;
14520;SDS011;7347;50.844;4.490;2023-02-16T20:42:34;10.13;;;5.63;;
14520;SDS011;7347;50.844;4.490;2023-02-16T20:45:02;10.40;;;5.73;;
14520;SDS011;7347;50.844;4.490;2023-02-16T20:47:29;11.07;;;5.40;;
14520;SDS011;7347;50.844;4.490;2023-02-16T20:49:56;7.60;;;4.47;;
14520;SDS011;7347;50.844;4.490;2023-02-16T20:52:23;7.43;;;4.33;;
14520;SDS011;7347;50.844;4.490;2023-02-16T20:54:50;9.00;;;4.73;;
14520;SDS011;7347;50.844;4.490;2023-02-16T20:57:16;9.10;;;4.60;;
14520;SDS011;7347;50.844;4.490;2023-02-16T20:59:44;7.60;;;4.40;;
14520;SDS011;7347;50.844;4.490;2023-02-16T21:02:11;9.77;;;4.53;;
14520;SDS011;7347;50.844;4.490;2023-02-16T21:04:38;7.83;;;4.10;;
14520;SDS011;7347;50.844;4.490;2023-02-16T21:07:05;6.30;;;3.77;;
14520;SDS011;7347;50.844;4.490;2023-02-16T21:09:32;11.43;;;4.53;;
14520;SDS011;7347;50.844;4.490;2023-02-16T21:11:58;7.73;;;4.07;;
14520;SDS011;7347;50.844;4.490;2023-02-16T21:14:25;7.67;;;3.80;;
14520;SDS011;7347;50.844;4.490;2023-02-16T21:16:53;6.60;;;3.90;;
14520;SDS011;7347;50.844;4.490;2023-02-16T21:19:20;5.97;;;3.40;;
14520;SDS011;7347;50.844;4.490;2023-02-16T21:21:47;5.67;;;3.27;;
14520;SDS011;7347;50.844;4.490;2023-02-16T21:24:14;5.07;;;2.83;;
14520;SDS011;7347;50.844;4.490;2023-02-16T21:26:41;6.53;;;3.30;;
14520;SDS011;7347;50.844;4.490;2023-02-16T21:29:07;5.33;;;3.30;;
14520;SDS011;7347;50.844;4.490;2023-02-16T21:31:34;6.60;;;3.53;;
14520;SDS011;7347;50.844;4.490;2023-02-16T21:34:02;5.77;;;3.10;;
14520;SDS011;7347;50.844;4.490;2023-02-16T21:36:29;6.67;;;2.60;;
14520;SDS011;7347;50.844;4.490;2023-02-16T21:38:56;3.47;;;2.33;;
14520;SDS011;7347;50.844;4.490;2023-02-16T21:41:24;4.03;;;2.33;;
14520;SDS011;7347;50.844;4.490;2023-02-16T21:43:53;3.97;;;2.00;;
14520;SDS011;7347;50.844;4.490;2023-02-16T21:46:23;4.20;;;2.07;;
14520;SDS011;7347;50.844;4.490;2023-02-16T21:48:50;3.60;;;2.00;;
14520;SDS011;7347;50.844;4.490;2023-02-16T21:51:18;4.30;;;1.83;;
14520;SDS011;7347;50.844;4.490;2023-02-16T21:53:46;3.63;;;1.80;;
14520;SDS011;7347;50.844;4.490;2023-02-16T21:56:28;5.43;;;1.93;;
14520;SDS011;7347;50.844;4.490;2023-02-16T21:58:58;4.03;;;2.10;;
14520;SDS011;7347;50.844;4.490;2023-02-16T22:01:26;5.73;;;2.20;;
14520;SDS011;7347;50.844;4.490;2023-02-16T22:03:53;3.47;;;1.83;;
14520;SDS011;7347;50.844;4.490;2023-02-16T22:06:24;3.57;;;1.83;;
14520;SDS011;7347;50.844;4.490;2023-02-16T22:08:52;3.70;;;1.70;;
14520;SDS011;7347;50.844;4.490;2023-02-16T22:11:19;2.50;;;1.70;;
14520;SDS011;7347;50.844;4.490;2023-02-16T22:13:46;2.33;;;1.60;;
14520;SDS011;7347;50.844;4.490;2023-02-16T22:16:17;3.40;;;2.30;;
14520;SDS011;7347;50.844;4.490;2023-02-16T22:18:45;4.80;;;2.20;;
14520;SDS011;7347;50.844;4.490;2023-02-16T22:21:12;3.97;;;2.20;;
14520;SDS011;7347;50.844;4.490;2023-02-16T22:23:40;2.70;;;1.67;;
14520;SDS011;7347;50.844;4.490;2023-02-16T22:26:07;3.23;;;1.90;;
14520;SDS011;7347;50.844;4.490;2023-02-16T22:28:44;4.60;;;1.80;;
14520;SDS011;7347;50.844;4.490;2023-02-16T22:31:11;3.00;;;1.77;;
14520;SDS011;7347;50.844;4.490;2023-02-16T22:33:37;3.20;;;2.10;;
14520;SDS011;7347;50.844;4.490;2023-02-16T22:36:05;2.50;;;1.70;;
14520;SDS011;7347;50.844;4.490;2023-02-16T22:38:36;2.23;;;1.67;;
